East Flat Rock, NC (28726)

11:03 EDT je la 24an de junio 2018 (GMT -0400)
Highland Hills | | Change Station

Elev 2221 ft 35.27 °N, 82.41 °W | Updated 8 seconds ago

Sennuba
Sennuba
81 °F
Sentas kiel 83 °F
N
5.82
Vento Varianta Vento from NNOk
Gusts 7.4 mej/h

hodiaŭ
High -- | Low -- °F
--% Ebla precip.
hieraŭ
High -- | Low -- °F
Precip. -- co
Aerpremo 29.98 co
Vidodistanco 10.0 mejloj
Nuboj Sennuba
Varmindico 83 °F
Rosopunkto 64 °F
Humido 57%
Pluvokvanto 0.00 co
Neĝprofundo Not available.
6:16 AM 8:48 PM
Kreskanta Lunĝibo, 88% visible
METAR KAVL 241454Z 34006KT 10SM CLR 27/19 A3006 RMK AO2 SLP151 T02720194 50004
Aerpremo 29.98 co
Vidodistanco 10.0 mejloj
Nuboj Sennuba
Varmindico 83 °F
Rosopunkto 64 °F
Humido 57%
Pluvokvanto 0.00 co
Neĝprofundo Not available.
6:16 AM 8:48 PM
Kreskanta Lunĝibo, 88% visible
METAR KAVL 241454Z 34006KT 10SM CLR 27/19 A3006 RMK AO2 SLP151 T02720194 50004

Get Severe Weather Alerts

Thanks for signing up!

Be on the lookout for a verification email in your inbox.

You'll start receiving the daily forecast at 6 AM.

×

10-Day Weather Forecast

Almanac

Astronomio

Jun. 24, 2018 Leviĝo Subiro
Aktuala tempo
Civila krepusko
Naŭtika krepusko
Astronomia krepusko
Luno
Daŭro de videbla lumo
Daŭro de tago
Tomorrow will be .
, % of the Moon is Illuminated

Hodiaŭaj ekstremaĵoj

State Highs State Lows

Community

WunderPhotos

Category 6

Welcome to Category 6. This is the collective home for Weather Underground's featured writeups by Dr. Jeff Masters (right), Bob Henson (left), Chris Burt, and other regular contributors.

Nearby

Aerkvalito

  Aerkvalito Aerkvalita indico Poluanto
Not available.

Neĝa profundeco

Station Depth Alteco

Earthquake Activity

Urbo Distance Mag. Time & Date
Minimum magnitude displayed is 2.5.

Coastal Water Temperatures

Loko Temperaturo

Stations

Najbaraj veter-stacioj

Loko de stacio Temp Venta
kvazaŭtemperaturo
Rosopunkto Humido Vento Precip. Elev Ĝisdatigita je Tipo
                   

Watches & Warnings

There are currently no watches in effect.